sensor_id;sensor_type;location;lat;lon;timestamp;P1;P2;P0
74880;PMS5003;63427;49.654;6.596;2023-09-12T00:00:49;21;21;
74880;PMS5003;63427;49.654;6.596;2023-09-12T00:03:19;23;21;
74880;PMS5003;63427;49.654;6.596;2023-09-12T00:05:40;26;26;
74880;PMS5003;63427;49.654;6.596;2023-09-12T00:08:05;22;22;
74880;PMS5003;63427;49.654;6.596;2023-09-12T00:10:30;25;25;
74880;PMS5003;63427;49.654;6.596;2023-09-12T00:12:56;24;22;
74880;PMS5003;63427;49.654;6.596;2023-09-12T00:15:21;24;23;
74880;PMS5003;63427;49.654;6.596;2023-09-12T00:17:46;24;24;
74880;PMS5003;63427;49.654;6.596;2023-09-12T00:20:12;27;26;
74880;PMS5003;63427;49.654;6.596;2023-09-12T00:22:37;23;23;
74880;PMS5003;63427;49.654;6.596;2023-09-12T00:25:02;24;24;
74880;PMS5003;63427;49.654;6.596;2023-09-12T00:27:28;22;22;
74880;PMS5003;63427;49.654;6.596;2023-09-12T00:29:54;21;21;
74880;PMS5003;63427;49.654;6.596;2023-09-12T00:32:19;23;23;
74880;PMS5003;63427;49.654;6.596;2023-09-12T00:34:45;21;21;
74880;PMS5003;63427;49.654;6.596;2023-09-12T00:37:10;25;25;
74880;PMS5003;63427;49.654;6.596;2023-09-12T00:39:36;24;24;
74880;PMS5003;63427;49.654;6.596;2023-09-12T00:42:02;21;21;
74880;PMS5003;63427;49.654;6.596;2023-09-12T00:44:27;24;24;
74880;PMS5003;63427;49.654;6.596;2023-09-12T00:46:52;22;22;
74880;PMS5003;63427;49.654;6.596;2023-09-12T00:49:18;19;19;
74880;PMS5003;63427;49.654;6.596;2023-09-12T00:51:43;22;22;
74880;PMS5003;63427;49.654;6.596;2023-09-12T00:54:09;29;28;
74880;PMS5003;63427;49.654;6.596;2023-09-12T00:56:34;22;21;
74880;PMS5003;63427;49.654;6.596;2023-09-12T00:59:00;23;23;
74880;PMS5003;63427;49.654;6.596;2023-09-12T01:01:25;24;23;
74880;PMS5003;63427;49.654;6.596;2023-09-12T01:03:50;25;25;
74880;PMS5003;63427;49.654;6.596;2023-09-12T01:06:16;25;23;
74880;PMS5003;63427;49.654;6.596;2023-09-12T01:08:42;26;25;
74880;PMS5003;63427;49.654;6.596;2023-09-12T01:11:07;22;22;
74880;PMS5003;63427;49.654;6.596;2023-09-12T01:13:32;23;23;
74880;PMS5003;63427;49.654;6.596;2023-09-12T01:15:58;27;27;
74880;PMS5003;63427;49.654;6.596;2023-09-12T01:18:23;27;27;
74880;PMS5003;63427;49.654;6.596;2023-09-12T01:20:52;23;23;
74880;PMS5003;63427;49.654;6.596;2023-09-12T01:23:20;28;27;
74880;PMS5003;63427;49.654;6.596;2023-09-12T01:28:05;25;25;
74880;PMS5003;63427;49.654;6.596;2023-09-12T01:30:30;27;27;
74880;PMS5003;63427;49.654;6.596;2023-09-12T01:32:55;24;24;
74880;PMS5003;63427;49.654;6.596;2023-09-12T01:35:21;23;23;
74880;PMS5003;63427;49.654;6.596;2023-09-12T01:37:46;23;22;
74880;PMS5003;63427;49.654;6.596;2023-09-12T01:40:12;25;24;
74880;PMS5003;63427;49.654;6.596;2023-09-12T01:42:38;21;20;
74880;PMS5003;63427;49.654;6.596;2023-09-12T01:45:03;23;22;
74880;PMS5003;63427;49.654;6.596;2023-09-12T01:47:28;22;22;
74880;PMS5003;63427;49.654;6.596;2023-09-12T01:49:55;23;23;
74880;PMS5003;63427;49.654;6.596;2023-09-12T01:52:19;21;21;
74880;PMS5003;63427;49.654;6.596;2023-09-12T01:54:45;24;24;
74880;PMS5003;63427;49.654;6.596;2023-09-12T01:57:11;27;26;
74880;PMS5003;63427;49.654;6.596;2023-09-12T01:59:37;26;25;
74880;PMS5003;63427;49.654;6.596;2023-09-12T02:02:03;26;26;
74880;PMS5003;63427;49.654;6.596;2023-09-12T02:04:28;27;27;
74880;PMS5003;63427;49.654;6.596;2023-09-12T02:06:54;24;24;
74880;PMS5003;63427;49.654;6.596;2023-09-12T02:09:19;28;28;
74880;PMS5003;63427;49.654;6.596;2023-09-12T02:11:45;28;27;
74880;PMS5003;63427;49.654;6.596;2023-09-12T02:14:10;23;23;
74880;PMS5003;63427;49.654;6.596;2023-09-12T02:16:36;26;25;
74880;PMS5003;63427;49.654;6.596;2023-09-12T02:19:01;25;24;
74880;PMS5003;63427;49.654;6.596;2023-09-12T02:21:27;33;32;
74880;PMS5003;63427;49.654;6.596;2023-09-12T02:23:52;23;22;
74880;PMS5003;63427;49.654;6.596;2023-09-12T02:26:18;23;22;
74880;PMS5003;63427;49.654;6.596;2023-09-12T02:28:43;25;25;
74880;PMS5003;63427;49.654;6.596;2023-09-12T02:31:09;28;26;
74880;PMS5003;63427;49.654;6.596;2023-09-12T02:33:34;26;25;
74880;PMS5003;63427;49.654;6.596;2023-09-12T02:35:59;24;24;
74880;PMS5003;63427;49.654;6.596;2023-09-12T02:38:25;23;23;
74880;PMS5003;63427;49.654;6.596;2023-09-12T02:40:50;25;25;
74880;PMS5003;63427;49.654;6.596;2023-09-12T02:43:16;28;27;
74880;PMS5003;63427;49.654;6.596;2023-09-12T02:45:41;22;22;
74880;PMS5003;63427;49.654;6.596;2023-09-12T02:48:07;25;25;
74880;PMS5003;63427;49.654;6.596;2023-09-12T02:50:32;25;25;
74880;PMS5003;63427;49.654;6.596;2023-09-12T02:52:58;24;24;
74880;PMS5003;63427;49.654;6.596;2023-09-12T02:55:23;21;21;
74880;PMS5003;63427;49.654;6.596;2023-09-12T02:57:49;25;24;
74880;PMS5003;63427;49.654;6.596;2023-09-12T03:00:14;26;26;
74880;PMS5003;63427;49.654;6.596;2023-09-12T03:02:39;29;29;
74880;PMS5003;63427;49.654;6.596;2023-09-12T03:05:05;27;27;
74880;PMS5003;63427;49.654;6.596;2023-09-12T03:07:30;27;26;
74880;PMS5003;63427;49.654;6.596;2023-09-12T03:09:56;24;24;
74880;PMS5003;63427;49.654;6.596;2023-09-12T03:12:22;23;23;
74880;PMS5003;63427;49.654;6.596;2023-09-12T03:14:47;27;27;
74880;PMS5003;63427;49.654;6.596;2023-09-12T03:17:13;22;22;
74880;PMS5003;63427;49.654;6.596;2023-09-12T03:19:39;24;24;
74880;PMS5003;63427;49.654;6.596;2023-09-12T03:22:05;24;23;
74880;PMS5003;63427;49.654;6.596;2023-09-12T03:24:30;22;22;
74880;PMS5003;63427;49.654;6.596;2023-09-12T03:26:56;21;21;
74880;PMS5003;63427;49.654;6.596;2023-09-12T03:29:22;26;25;
74880;PMS5003;63427;49.654;6.596;2023-09-12T03:31:47;25;25;
74880;PMS5003;63427;49.654;6.596;2023-09-12T03:34:13;26;25;
74880;PMS5003;63427;49.654;6.596;2023-09-12T03:36:38;21;20;
74880;PMS5003;63427;49.654;6.596;2023-09-12T03:39:04;23;23;
74880;PMS5003;63427;49.654;6.596;2023-09-12T03:41:30;25;25;
74880;PMS5003;63427;49.654;6.596;2023-09-12T03:43:55;28;28;
74880;PMS5003;63427;49.654;6.596;2023-09-12T03:46:21;32;32;
74880;PMS5003;63427;49.654;6.596;2023-09-12T03:48:47;23;23;
74880;PMS5003;63427;49.654;6.596;2023-09-12T03:51:12;22;22;
74880;PMS5003;63427;49.654;6.596;2023-09-12T03:53:38;25;24;
74880;PMS5003;63427;49.654;6.596;2023-09-12T03:56:03;29;29;
74880;PMS5003;63427;49.654;6.596;2023-09-12T03:58:29;25;25;
74880;PMS5003;63427;49.654;6.596;2023-09-12T04:00:54;23;23;
74880;PMS5003;63427;49.654;6.596;2023-09-12T04:03:20;24;24;
74880;PMS5003;63427;49.654;6.596;2023-09-12T04:05:46;25;24;
74880;PMS5003;63427;49.654;6.596;2023-09-12T04:08:11;22;22;
74880;PMS5003;63427;49.654;6.596;2023-09-12T04:10:37;24;24;
74880;PMS5003;63427;49.654;6.596;2023-09-12T04:13:02;20;20;
74880;PMS5003;63427;49.654;6.596;2023-09-12T04:15:28;24;24;
74880;PMS5003;63427;49.654;6.596;2023-09-12T04:17:53;25;24;
74880;PMS5003;63427;49.654;6.596;2023-09-12T04:20:19;25;25;
74880;PMS5003;63427;49.654;6.596;2023-09-12T04:22:44;24;24;
74880;PMS5003;63427;49.654;6.596;2023-09-12T04:25:10;25;24;
74880;PMS5003;63427;49.654;6.596;2023-09-12T04:27:35;23;23;
74880;PMS5003;63427;49.654;6.596;2023-09-12T04:30:01;24;24;
74880;PMS5003;63427;49.654;6.596;2023-09-12T04:32:26;26;25;
74880;PMS5003;63427;49.654;6.596;2023-09-12T04:34:52;24;24;
74880;PMS5003;63427;49.654;6.596;2023-09-12T04:37:17;24;24;
74880;PMS5003;63427;49.654;6.596;2023-09-12T04:39:42;27;26;
74880;PMS5003;63427;49.654;6.596;2023-09-12T04:42:08;26;25;
74880;PMS5003;63427;49.654;6.596;2023-09-12T04:44:34;27;26;
74880;PMS5003;63427;49.654;6.596;2023-09-12T04:46:59;30;30;
74880;PMS5003;63427;49.654;6.596;2023-09-12T04:49:25;28;28;
74880;PMS5003;63427;49.654;6.596;2023-09-12T04:51:50;23;23;
74880;PMS5003;63427;49.654;6.596;2023-09-12T04:54:16;23;23;
74880;PMS5003;63427;49.654;6.596;2023-09-12T04:56:41;25;25;
74880;PMS5003;63427;49.654;6.596;2023-09-12T04:59:07;24;24;
74880;PMS5003;63427;49.654;6.596;2023-09-12T05:01:33;24;23;
74880;PMS5003;63427;49.654;6.596;2023-09-12T05:03:58;26;26;
74880;PMS5003;63427;49.654;6.596;2023-09-12T05:06:24;25;24;
74880;PMS5003;63427;49.654;6.596;2023-09-12T05:08:50;24;24;
74880;PMS5003;63427;49.654;6.596;2023-09-12T05:11:15;21;21;
74880;PMS5003;63427;49.654;6.596;2023-09-12T05:13:41;20;20;
74880;PMS5003;63427;49.654;6.596;2023-09-12T05:16:06;26;24;
74880;PMS5003;63427;49.654;6.596;2023-09-12T05:18:32;28;27;
74880;PMS5003;63427;49.654;6.596;2023-09-12T05:20:58;24;24;
74880;PMS5003;63427;49.654;6.596;2023-09-12T05:23:24;22;22;
74880;PMS5003;63427;49.654;6.596;2023-09-12T05:25:50;23;23;
74880;PMS5003;63427;49.654;6.596;2023-09-12T05:28:16;25;24;
74880;PMS5003;63427;49.654;6.596;2023-09-12T05:30:40;27;27;
74880;PMS5003;63427;49.654;6.596;2023-09-12T05:33:06;25;25;
74880;PMS5003;63427;49.654;6.596;2023-09-12T05:35:31;28;26;
74880;PMS5003;63427;49.654;6.596;2023-09-12T05:37:57;25;25;
74880;PMS5003;63427;49.654;6.596;2023-09-12T05:40:22;26;26;
74880;PMS5003;63427;49.654;6.596;2023-09-12T05:42:47;26;25;
74880;PMS5003;63427;49.654;6.596;2023-09-12T05:45:13;25;25;
74880;PMS5003;63427;49.654;6.596;2023-09-12T05:50:05;28;28;
74880;PMS5003;63427;49.654;6.596;2023-09-12T05:52:30;24;24;
74880;PMS5003;63427;49.654;6.596;2023-09-12T05:54:55;27;27;
74880;PMS5003;63427;49.654;6.596;2023-09-12T05:57:21;29;28;
74880;PMS5003;63427;49.654;6.596;2023-09-12T05:59:46;24;24;
74880;PMS5003;63427;49.654;6.596;2023-09-12T06:02:11;24;24;
74880;PMS5003;63427;49.654;6.596;2023-09-12T06:04:37;28;26;
74880;PMS5003;63427;49.654;6.596;2023-09-12T06:07:03;28;28;
74880;PMS5003;63427;49.654;6.596;2023-09-12T06:09:28;27;27;
74880;PMS5003;63427;49.654;6.596;2023-09-12T06:11:54;20;20;
74880;PMS5003;63427;49.654;6.596;2023-09-12T06:14:19;23;22;
74880;PMS5003;63427;49.654;6.596;2023-09-12T06:16:45;25;25;
74880;PMS5003;63427;49.654;6.596;2023-09-12T06:19:10;29;28;
74880;PMS5003;63427;49.654;6.596;2023-09-12T06:21:37;34;33;
74880;PMS5003;63427;49.654;6.596;2023-09-12T06:24:08;30;30;
74880;PMS5003;63427;49.654;6.596;2023-09-12T06:26:27;30;30;
74880;PMS5003;63427;49.654;6.596;2023-09-12T06:28:54;26;25;
74880;PMS5003;63427;49.654;6.596;2023-09-12T06:31:19;24;24;
74880;PMS5003;63427;49.654;6.596;2023-09-12T06:33:44;27;26;
74880;PMS5003;63427;49.654;6.596;2023-09-12T06:36:10;24;24;
74880;PMS5003;63427;49.654;6.596;2023-09-12T06:38:35;24;23;
74880;PMS5003;63427;49.654;6.596;2023-09-12T06:41:01;25;25;
74880;PMS5003;63427;49.654;6.596;2023-09-12T06:43:26;24;24;
74880;PMS5003;63427;49.654;6.596;2023-09-12T06:45:52;31;31;
74880;PMS5003;63427;49.654;6.596;2023-09-12T06:48:17;25;25;
74880;PMS5003;63427;49.654;6.596;2023-09-12T06:50:42;27;27;
74880;PMS5003;63427;49.654;6.596;2023-09-12T06:53:08;27;26;
74880;PMS5003;63427;49.654;6.596;2023-09-12T06:55:34;27;27;
74880;PMS5003;63427;49.654;6.596;2023-09-12T06:58:09;27;27;
74880;PMS5003;63427;49.654;6.596;2023-09-12T07:00:24;30;30;
74880;PMS5003;63427;49.654;6.596;2023-09-12T07:02:50;29;29;
74880;PMS5003;63427;49.654;6.596;2023-09-12T07:05:16;34;34;
74880;PMS5003;63427;49.654;6.596;2023-09-12T07:07:50;38;36;
74880;PMS5003;63427;49.654;6.596;2023-09-12T07:10:07;28;28;
74880;PMS5003;63427;49.654;6.596;2023-09-12T07:12:32;32;32;
74880;PMS5003;63427;49.654;6.596;2023-09-12T07:14:57;31;30;
74880;PMS5003;63427;49.654;6.596;2023-09-12T07:17:23;29;29;
74880;PMS5003;63427;49.654;6.596;2023-09-12T07:19:50;30;30;
74880;PMS5003;63427;49.654;6.596;2023-09-12T07:22:14;28;28;
74880;PMS5003;63427;49.654;6.596;2023-09-12T07:24:40;28;28;
74880;PMS5003;63427;49.654;6.596;2023-09-12T07:27:05;34;34;
74880;PMS5003;63427;49.654;6.596;2023-09-12T07:29:30;32;31;
74880;PMS5003;63427;49.654;6.596;2023-09-12T07:31:56;34;32;
74880;PMS5003;63427;49.654;6.596;2023-09-12T07:34:21;36;36;
74880;PMS5003;63427;49.654;6.596;2023-09-12T07:36:47;30;29;
74880;PMS5003;63427;49.654;6.596;2023-09-12T07:39:21;27;27;
74880;PMS5003;63427;49.654;6.596;2023-09-12T07:41:38;31;31;
74880;PMS5003;63427;49.654;6.596;2023-09-12T07:44:04;30;30;
74880;PMS5003;63427;49.654;6.596;2023-09-12T07:46:29;32;30;
74880;PMS5003;63427;49.654;6.596;2023-09-12T07:48:55;31;29;
74880;PMS5003;63427;49.654;6.596;2023-09-12T07:51:20;27;27;
74880;PMS5003;63427;49.654;6.596;2023-09-12T07:53:45;33;32;
74880;PMS5003;63427;49.654;6.596;2023-09-12T07:56:11;30;30;
74880;PMS5003;63427;49.654;6.596;2023-09-12T07:58:36;28;27;
74880;PMS5003;63427;49.654;6.596;2023-09-12T08:01:07;35;34;
74880;PMS5003;63427;49.654;6.596;2023-09-12T08:03:27;30;30;
74880;PMS5003;63427;49.654;6.596;2023-09-12T08:05:54;28;28;
74880;PMS5003;63427;49.654;6.596;2023-09-12T08:08:18;34;34;
74880;PMS5003;63427;49.654;6.596;2023-09-12T08:10:50;29;29;
74880;PMS5003;63427;49.654;6.596;2023-09-12T08:13:09;31;31;
74880;PMS5003;63427;49.654;6.596;2023-09-12T08:15:35;31;31;
74880;PMS5003;63427;49.654;6.596;2023-09-12T08:18:00;29;29;
74880;PMS5003;63427;49.654;6.596;2023-09-12T08:20:30;32;31;
74880;PMS5003;63427;49.654;6.596;2023-09-12T08:22:52;29;29;
74880;PMS5003;63427;49.654;6.596;2023-09-12T08:25:16;27;26;
74880;PMS5003;63427;49.654;6.596;2023-09-12T08:27:41;31;30;
74880;PMS5003;63427;49.654;6.596;2023-09-12T08:30:17;26;26;
74880;PMS5003;63427;49.654;6.596;2023-09-12T08:32:33;25;25;
74880;PMS5003;63427;49.654;6.596;2023-09-12T08:34:58;27;27;
74880;PMS5003;63427;49.654;6.596;2023-09-12T08:37:24;30;30;
74880;PMS5003;63427;49.654;6.596;2023-09-12T08:39:49;29;29;
74880;PMS5003;63427;49.654;6.596;2023-09-12T08:42:15;27;26;
74880;PMS5003;63427;49.654;6.596;2023-09-12T08:44:41;25;25;
74880;PMS5003;63427;49.654;6.596;2023-09-12T08:47:07;27;25;
74880;PMS5003;63427;49.654;6.596;2023-09-12T08:49:31;24;24;
74880;PMS5003;63427;49.654;6.596;2023-09-12T08:51:56;26;26;
74880;PMS5003;63427;49.654;6.596;2023-09-12T08:54:22;25;25;
74880;PMS5003;63427;49.654;6.596;2023-09-12T08:56:47;25;25;
74880;PMS5003;63427;49.654;6.596;2023-09-12T08:59:13;26;26;
74880;PMS5003;63427;49.654;6.596;2023-09-12T09:01:38;26;25;
74880;PMS5003;63427;49.654;6.596;2023-09-12T09:04:03;26;25;
74880;PMS5003;63427;49.654;6.596;2023-09-12T09:06:29;31;31;
74880;PMS5003;63427;49.654;6.596;2023-09-12T09:08:54;22;22;
74880;PMS5003;63427;49.654;6.596;2023-09-12T09:11:19;28;27;
74880;PMS5003;63427;49.654;6.596;2023-09-12T09:13:45;26;26;
74880;PMS5003;63427;49.654;6.596;2023-09-12T09:16:11;31;30;
74880;PMS5003;63427;49.654;6.596;2023-09-12T09:23:27;23;23;
74880;PMS5003;63427;49.654;6.596;2023-09-12T09:25:53;29;28;
74880;PMS5003;63427;49.654;6.596;2023-09-12T09:28:20;26;26;
74880;PMS5003;63427;49.654;6.596;2023-09-12T09:30:44;27;26;
74880;PMS5003;63427;49.654;6.596;2023-09-12T09:33:09;25;25;
74880;PMS5003;63427;49.654;6.596;2023-09-12T09:35:34;25;25;
74880;PMS5003;63427;49.654;6.596;2023-09-12T09:38:00;24;23;
74880;PMS5003;63427;49.654;6.596;2023-09-12T09:40:26;26;25;
74880;PMS5003;63427;49.654;6.596;2023-09-12T09:42:53;25;24;
74880;PMS5003;63427;49.654;6.596;2023-09-12T09:45:16;25;24;
74880;PMS5003;63427;49.654;6.596;2023-09-12T09:47:42;26;25;
74880;PMS5003;63427;49.654;6.596;2023-09-12T09:50:08;27;27;
74880;PMS5003;63427;49.654;6.596;2023-09-12T09:52:34;24;24;
74880;PMS5003;63427;49.654;6.596;2023-09-12T09:54:59;25;25;
74880;PMS5003;63427;49.654;6.596;2023-09-12T09:57:25;26;26;
74880;PMS5003;63427;49.654;6.596;2023-09-12T09:59:50;25;25;
74880;PMS5003;63427;49.654;6.596;2023-09-12T10:02:16;24;23;
74880;PMS5003;63427;49.654;6.596;2023-09-12T10:04:42;27;27;
74880;PMS5003;63427;49.654;6.596;2023-09-12T10:07:05;23;23;
74880;PMS5003;63427;49.654;6.596;2023-09-12T10:09:31;26;26;
74880;PMS5003;63427;49.654;6.596;2023-09-12T10:11:56;28;28;
74880;PMS5003;63427;49.654;6.596;2023-09-12T10:14:22;28;28;
74880;PMS5003;63427;49.654;6.596;2023-09-12T10:16:47;27;27;
74880;PMS5003;63427;49.654;6.596;2023-09-12T10:19:13;26;26;
74880;PMS5003;63427;49.654;6.596;2023-09-12T10:21:38;23;23;
74880;PMS5003;63427;49.654;6.596;2023-09-12T10:24:03;25;25;
74880;PMS5003;63427;49.654;6.596;2023-09-12T10:26:29;25;25;
74880;PMS5003;63427;49.654;6.596;2023-09-12T10:28:54;27;27;
74880;PMS5003;63427;49.654;6.596;2023-09-12T10:31:19;27;27;
74880;PMS5003;63427;49.654;6.596;2023-09-12T10:33:46;25;25;
74880;PMS5003;63427;49.654;6.596;2023-09-12T10:36:11;28;28;
74880;PMS5003;63427;49.654;6.596;2023-09-12T10:38:36;26;26;
74880;PMS5003;63427;49.654;6.596;2023-09-12T10:41:01;25;24;
74880;PMS5003;63427;49.654;6.596;2023-09-12T10:43:37;26;26;
74880;PMS5003;63427;49.654;6.596;2023-09-12T10:45:52;30;28;
74880;PMS5003;63427;49.654;6.596;2023-09-12T10:48:17;30;29;
74880;PMS5003;63427;49.654;6.596;2023-09-12T10:50:42;24;23;
74880;PMS5003;63427;49.654;6.596;2023-09-12T10:53:09;29;29;
74880;PMS5003;63427;49.654;6.596;2023-09-12T10:55:33;28;28;
74880;PMS5003;63427;49.654;6.596;2023-09-12T10:58:01;29;29;
74880;PMS5003;63427;49.654;6.596;2023-09-12T11:00:24;27;26;
74880;PMS5003;63427;49.654;6.596;2023-09-12T11:02:51;25;25;
74880;PMS5003;63427;49.654;6.596;2023-09-12T11:07:44;28;27;
74880;PMS5003;63427;49.654;6.596;2023-09-12T11:12:36;27;27;
74880;PMS5003;63427;49.654;6.596;2023-09-12T11:15:04;24;24;
74880;PMS5003;63427;49.654;6.596;2023-09-12T11:17:21;27;27;
74880;PMS5003;63427;49.654;6.596;2023-09-12T11:19:47;26;26;
74880;PMS5003;63427;49.654;6.596;2023-09-12T11:24:41;24;24;
74880;PMS5003;63427;49.654;6.596;2023-09-12T11:27:03;23;22;
74880;PMS5003;63427;49.654;6.596;2023-09-12T11:29:29;23;23;
74880;PMS5003;63427;49.654;6.596;2023-09-12T11:31:54;27;27;
74880;PMS5003;63427;49.654;6.596;2023-09-12T11:34:19;24;24;
74880;PMS5003;63427;49.654;6.596;2023-09-12T11:36:45;24;24;
74880;PMS5003;63427;49.654;6.596;2023-09-12T11:41:38;21;21;
74880;PMS5003;63427;49.654;6.596;2023-09-12T11:44:02;26;25;
74880;PMS5003;63427;49.654;6.596;2023-09-12T11:46:26;26;25;
74880;PMS5003;63427;49.654;6.596;2023-09-12T11:48:51;24;23;
74880;PMS5003;63427;49.654;6.596;2023-09-12T11:51:16;21;21;
74880;PMS5003;63427;49.654;6.596;2023-09-12T11:53:42;22;22;
74880;PMS5003;63427;49.654;6.596;2023-09-12T11:56:07;20;20;
74880;PMS5003;63427;49.654;6.596;2023-09-12T11:58:32;24;24;
74880;PMS5003;63427;49.654;6.596;2023-09-12T12:00:58;22;21;
74880;PMS5003;63427;49.654;6.596;2023-09-12T12:03:24;22;21;
74880;PMS5003;63427;49.654;6.596;2023-09-12T12:05:48;23;23;
74880;PMS5003;63427;49.654;6.596;2023-09-12T12:08:14;22;21;
74880;PMS5003;63427;49.654;6.596;2023-09-12T12:10:39;22;22;
74880;PMS5003;63427;49.654;6.596;2023-09-12T12:13:04;22;21;
74880;PMS5003;63427;49.654;6.596;2023-09-12T12:15:29;20;20;
74880;PMS5003;63427;49.654;6.596;2023-09-12T12:17:54;23;22;
74880;PMS5003;63427;49.654;6.596;2023-09-12T12:20:20;21;21;
74880;PMS5003;63427;49.654;6.596;2023-09-12T12:22:44;24;24;
74880;PMS5003;63427;49.654;6.596;2023-09-12T12:25:10;19;19;
74880;PMS5003;63427;49.654;6.596;2023-09-12T12:27:35;20;20;
74880;PMS5003;63427;49.654;6.596;2023-09-12T12:30:00;20;20;
74880;PMS5003;63427;49.654;6.596;2023-09-12T12:32:25;23;23;
74880;PMS5003;63427;49.654;6.596;2023-09-12T12:34:51;21;21;
74880;PMS5003;63427;49.654;6.596;2023-09-12T12:37:16;22;22;
74880;PMS5003;63427;49.654;6.596;2023-09-12T12:39:42;22;22;
74880;PMS5003;63427;49.654;6.596;2023-09-12T12:42:07;22;22;
74880;PMS5003;63427;49.654;6.596;2023-09-12T12:44:33;21;20;
74880;PMS5003;63427;49.654;6.596;2023-09-12T12:46:58;20;20;
74880;PMS5003;63427;49.654;6.596;2023-09-12T12:49:23;23;22;
74880;PMS5003;63427;49.654;6.596;2023-09-12T12:51:48;23;22;
74880;PMS5003;63427;49.654;6.596;2023-09-12T12:54:14;20;20;
74880;PMS5003;63427;49.654;6.596;2023-09-12T12:56:39;19;19;
74880;PMS5003;63427;49.654;6.596;2023-09-12T12:59:05;20;20;
74880;PMS5003;63427;49.654;6.596;2023-09-12T13:01:29;19;19;
74880;PMS5003;63427;49.654;6.596;2023-09-12T13:03:54;21;20;
74880;PMS5003;63427;49.654;6.596;2023-09-12T13:06:20;22;21;
74880;PMS5003;63427;49.654;6.596;2023-09-12T13:08:45;21;21;
74880;PMS5003;63427;49.654;6.596;2023-09-12T13:11:10;26;25;
74880;PMS5003;63427;49.654;6.596;2023-09-12T13:13:36;22;22;
74880;PMS5003;63427;49.654;6.596;2023-09-12T13:16:01;18;18;
74880;PMS5003;63427;49.654;6.596;2023-09-12T13:18:26;19;19;
74880;PMS5003;63427;49.654;6.596;2023-09-12T13:20:51;19;19;
74880;PMS5003;63427;49.654;6.596;2023-09-12T13:23:16;18;18;
74880;PMS5003;63427;49.654;6.596;2023-09-12T13:25:42;21;21;
74880;PMS5003;63427;49.654;6.596;2023-09-12T13:28:07;20;20;
74880;PMS5003;63427;49.654;6.596;2023-09-12T13:30:32;19;19;
74880;PMS5003;63427;49.654;6.596;2023-09-12T13:32:57;20;20;
74880;PMS5003;63427;49.654;6.596;2023-09-12T13:35:23;20;20;
74880;PMS5003;63427;49.654;6.596;2023-09-12T13:37:48;19;19;
74880;PMS5003;63427;49.654;6.596;2023-09-12T13:40:14;18;18;
74880;PMS5003;63427;49.654;6.596;2023-09-12T13:42:39;19;19;
74880;PMS5003;63427;49.654;6.596;2023-09-12T13:45:05;17;17;
74880;PMS5003;63427;49.654;6.596;2023-09-12T13:47:30;17;17;
74880;PMS5003;63427;49.654;6.596;2023-09-12T13:49:55;18;18;
74880;PMS5003;63427;49.654;6.596;2023-09-12T13:52:20;18;18;
74880;PMS5003;63427;49.654;6.596;2023-09-12T13:54:45;18;18;
74880;PMS5003;63427;49.654;6.596;2023-09-12T13:57:21;15;15;
74880;PMS5003;63427;49.654;6.596;2023-09-12T13:59:36;19;18;
74880;PMS5003;63427;49.654;6.596;2023-09-12T14:02:02;17;17;
74880;PMS5003;63427;49.654;6.596;2023-09-12T14:04:27;17;17;
74880;PMS5003;63427;49.654;6.596;2023-09-12T14:06:52;17;17;
74880;PMS5003;63427;49.654;6.596;2023-09-12T14:09:17;19;18;
74880;PMS5003;63427;49.654;6.596;2023-09-12T14:11:43;18;18;
74880;PMS5003;63427;49.654;6.596;2023-09-12T14:14:08;16;15;
74880;PMS5003;63427;49.654;6.596;2023-09-12T14:16:33;17;17;
74880;PMS5003;63427;49.654;6.596;2023-09-12T14:18:58;17;17;
74880;PMS5003;63427;49.654;6.596;2023-09-12T14:21:24;17;17;
74880;PMS5003;63427;49.654;6.596;2023-09-12T14:23:49;17;17;
74880;PMS5003;63427;49.654;6.596;2023-09-12T14:26:15;18;18;
74880;PMS5003;63427;49.654;6.596;2023-09-12T14:28:40;17;17;
74880;PMS5003;63427;49.654;6.596;2023-09-12T14:31:05;18;18;
74880;PMS5003;63427;49.654;6.596;2023-09-12T14:33:31;18;18;
74880;PMS5003;63427;49.654;6.596;2023-09-12T14:35:56;14;14;
74880;PMS5003;63427;49.654;6.596;2023-09-12T14:38:21;16;15;
74880;PMS5003;63427;49.654;6.596;2023-09-12T14:40:46;16;16;
74880;PMS5003;63427;49.654;6.596;2023-09-12T14:43:12;17;17;
74880;PMS5003;63427;49.654;6.596;2023-09-12T14:45:37;17;17;
74880;PMS5003;63427;49.654;6.596;2023-09-12T14:48:03;18;18;
74880;PMS5003;63427;49.654;6.596;2023-09-12T14:50:28;16;16;
74880;PMS5003;63427;49.654;6.596;2023-09-12T14:52:53;17;17;
74880;PMS5003;63427;49.654;6.596;2023-09-12T14:55:19;20;19;
74880;PMS5003;63427;49.654;6.596;2023-09-12T14:57:45;16;15;
74880;PMS5003;63427;49.654;6.596;2023-09-12T15:00:10;17;16;
74880;PMS5003;63427;49.654;6.596;2023-09-12T15:02:35;17;17;
74880;PMS5003;63427;49.654;6.596;2023-09-12T15:05:01;15;14;
74880;PMS5003;63427;49.654;6.596;2023-09-12T15:07:26;16;15;
74880;PMS5003;63427;49.654;6.596;2023-09-12T15:09:52;16;16;
74880;PMS5003;63427;49.654;6.596;2023-09-12T15:12:17;18;18;
74880;PMS5003;63427;49.654;6.596;2023-09-12T15:14:43;15;15;
74880;PMS5003;63427;49.654;6.596;2023-09-12T15:17:08;16;16;
74880;PMS5003;63427;49.654;6.596;2023-09-12T15:19:34;17;17;
74880;PMS5003;63427;49.654;6.596;2023-09-12T15:21:59;16;16;
74880;PMS5003;63427;49.654;6.596;2023-09-12T15:24:25;17;17;
74880;PMS5003;63427;49.654;6.596;2023-09-12T15:26:51;16;16;
74880;PMS5003;63427;49.654;6.596;2023-09-12T15:29:16;20;19;
74880;PMS5003;63427;49.654;6.596;2023-09-12T15:31:41;18;18;
74880;PMS5003;63427;49.654;6.596;2023-09-12T15:34:06;21;21;
74880;PMS5003;63427;49.654;6.596;2023-09-12T15:36:36;19;18;
74880;PMS5003;63427;49.654;6.596;2023-09-12T15:38:58;18;18;
74880;PMS5003;63427;49.654;6.596;2023-09-12T15:41:23;20;19;
74880;PMS5003;63427;49.654;6.596;2023-09-12T15:43:48;17;17;
74880;PMS5003;63427;49.654;6.596;2023-09-12T15:46:14;22;21;
74880;PMS5003;63427;49.654;6.596;2023-09-12T15:48:39;20;20;
74880;PMS5003;63427;49.654;6.596;2023-09-12T15:51:15;19;19;
74880;PMS5003;63427;49.654;6.596;2023-09-12T15:53:30;18;18;
74880;PMS5003;63427;49.654;6.596;2023-09-12T15:55:55;17;17;
74880;PMS5003;63427;49.654;6.596;2023-09-12T15:58:21;19;19;
74880;PMS5003;63427;49.654;6.596;2023-09-12T16:00:46;18;18;
74880;PMS5003;63427;49.654;6.596;2023-09-12T16:03:11;23;23;
74880;PMS5003;63427;49.654;6.596;2023-09-12T16:05:37;18;18;
74880;PMS5003;63427;49.654;6.596;2023-09-12T16:08:02;19;19;
74880;PMS5003;63427;49.654;6.596;2023-09-12T16:10:28;19;19;
74880;PMS5003;63427;49.654;6.596;2023-09-12T16:12:53;20;20;
74880;PMS5003;63427;49.654;6.596;2023-09-12T16:15:20;19;19;
74880;PMS5003;63427;49.654;6.596;2023-09-12T16:17:49;17;17;
74880;PMS5003;63427;49.654;6.596;2023-09-12T16:20:10;18;18;
74880;PMS5003;63427;49.654;6.596;2023-09-12T16:22:35;18;18;
74880;PMS5003;63427;49.654;6.596;2023-09-12T16:25:00;22;22;